Time;durP1;ratioP1;P1;durP2;ratioP2;P2;SDS_P1;SDS_P2;PMS_P1;PMS_P2;Temp;Humidity;BMP_temperature;BMP_pressure;BME280_temperature;BME280_humidity;BME280_pressure;Samples;Min_cycle;Max_cycle;Signal;HPM_P1;HPM_P2
2021/12/10 00:01:59;;;;;;;42.00;32.55;;;5.10;99.90;;;;;;5002075;28;89535;-35
2021/12/10 00:04:31;;;;;;;44.20;34.30;;;5.10;99.90;;;;;;5000432;28;90790;-34
2021/12/10 00:07:01;;;;;;;44.88;32.95;;;5.10;99.90;;;;;;5002682;28;90439;-37
2021/12/10 00:09:50;;;;;;;46.28;31.60;;;5.10;99.90;;;;;;5001766;28;88499;-36
2021/12/10 00:12:26;;;;;;;41.90;32.58;;;5.10;99.90;;;;;;5002697;28;88587;-36
2021/12/10 00:14:53;;;;;;;53.47;34.42;;;5.10;99.90;;;;;;5001153;28;88830;-37
2021/12/10 00:17:21;;;;;;;46.42;35.33;;;5.10;99.90;;;;;;5001839;28;89833;-36
2021/12/10 00:19:50;;;;;;;45.92;33.05;;;5.10;99.90;;;;;;5001970;28;90575;-32
2021/12/10 00:22:25;;;;;;;41.38;32.03;;;5.10;99.90;;;;;;5002371;28;89567;-40
2021/12/10 00:24:52;;;;;;;43.08;31.27;;;5.10;99.90;;;;;;5001531;28;88912;-35
2021/12/10 00:27:28;;;;;;;48.80;34.50;;;5.10;99.90;;;;;;5002275;28;88325;-41
2021/12/10 00:30:04;;;;;;;44.00;31.52;;;5.10;99.90;;;;;;5002193;28;88329;-34
2021/12/10 00:32:34;;;;;;;44.55;34.42;;;5.10;99.90;;;;;;5001219;28;88977;-34
2021/12/10 00:35:04;;;;;;;45.05;33.13;;;5.10;99.90;;;;;;5001853;28;89083;-35
2021/12/10 00:37:30;;;;;;;48.85;33.13;;;5.10;99.90;;;;;;5001487;28;88372;-36
2021/12/10 00:39:59;;;;;;;40.58;33.60;;;5.10;99.90;;;;;;5001725;28;89830;-40
2021/12/10 00:42:28;;;;;;;44.15;32.28;;;5.10;99.90;;;;;;5002645;28;89924;-35
2021/12/10 00:44:55;;;;;;;45.35;33.88;;;5.10;99.90;;;;;;5001554;28;91662;-36
2021/12/10 00:47:22;;;;;;;51.92;35.47;;;5.20;99.90;;;;;;5001643;28;91838;-33
2021/12/10 00:49:48;;;;;;;54.70;30.85;;;5.10;99.90;;;;;;5000173;28;88629;-37
2021/12/10 00:52:15;;;;;;;41.95;27.40;;;5.20;99.90;;;;;;5002196;28;88628;-34
2021/12/10 00:54:41;;;;;;;44.65;31.25;;;5.30;99.90;;;;;;5001858;28;89011;-35
2021/12/10 00:57:09;;;;;;;37.92;29.85;;;5.30;99.90;;;;;;5001688;28;90423;-36
2021/12/10 00:59:36;;;;;;;47.90;31.58;;;5.20;99.90;;;;;;5000837;28;89677;-35
2021/12/10 01:02:04;;;;;;;45.88;30.95;;;5.20;99.90;;;;;;5001860;28;89681;-41
2021/12/10 01:04:33;;;;;;;39.38;28.25;;;5.20;99.90;;;;;;5001386;28;90188;-32
2021/12/10 01:07:02;;;;;;;33.95;26.00;;;5.20;99.90;;;;;;5001362;28;89823;-40
2021/12/10 01:09:32;;;;;;;38.55;25.63;;;5.10;99.90;;;;;;5001801;28;87549;-35
2021/12/10 01:12:23;;;;;;;40.22;26.45;;;5.20;99.90;;;;;;5001921;28;88622;-35
2021/12/10 01:25:54;;;;;;;31.02;25.23;;;5.20;99.90;;;;;;5041183;27;88780;-37
2021/12/10 01:28:21;;;;;;;35.28;25.23;;;5.10;99.90;;;;;;5040790;27;89774;-37
2021/12/10 01:30:47;;;;;;;29.67;21.27;;;5.10;99.90;;;;;;5023519;27;88786;-36
2021/12/10 01:33:17;;;;;;;42.50;25.02;;;5.20;99.90;;;;;;5041957;27;89829;-34
2021/12/10 01:35:53;;;;;;;41.90;25.13;;;5.20;99.90;;;;;;5041575;27;89988;-33
2021/12/10 01:38:20;;;;;;;32.88;22.02;;;5.20;99.90;;;;;;5020079;28;90305;-36
2021/12/10 01:40:48;;;;;;;25.67;20.95;;;5.20;99.90;;;;;;5018727;27;89602;-33
2021/12/10 01:43:23;;;;;;;37.22;24.73;;;5.20;99.90;;;;;;5023196;27;89842;-31
2021/12/10 01:45:55;;;;;;;29.85;21.58;;;5.10;99.90;;;;;;5040031;27;91090;-35
2021/12/10 01:48:31;;;;;;;33.53;22.58;;;5.10;99.90;;;;;;5040830;27;89568;-33
2021/12/10 01:50:58;;;;;;;33.40;21.90;;;5.20;99.90;;;;;;5040889;27;88739;-37
2021/12/10 01:53:27;;;;;;;31.20;20.33;;;5.20;99.90;;;;;;5040697;27;87670;-39
2021/12/10 01:55:58;;;;;;;32.50;22.35;;;5.10;99.90;;;;;;5041044;27;87962;-38
2021/12/10 01:58:27;;;;;;;34.40;22.70;;;5.20;99.90;;;;;;5041790;27;89694;-36
2021/12/10 02:01:05;;;;;;;26.83;20.42;;;5.20;99.90;;;;;;5005875;27;88512;-33
2021/12/10 02:03:32;;;;;;;24.42;19.80;;;5.20;99.90;;;;;;5040355;27;89579;-37
2021/12/10 02:05:59;;;;;;;24.70;18.88;;;5.10;99.90;;;;;;5040886;27;89815;-35
2021/12/10 02:08:25;;;;;;;29.80;19.65;;;5.10;99.90;;;;;;5041297;27;90432;-33
2021/12/10 02:10:51;;;;;;;26.48;21.05;;;5.10;99.90;;;;;;5041211;27;89214;-35
2021/12/10 02:13:16;;;;;;;31.30;21.40;;;5.10;99.90;;;;;;5021985;27;89344;-40
2021/12/10 02:15:43;;;;;;;31.73;20.92;;;5.10;99.90;;;;;;5040661;27;88726;-33
2021/12/10 02:18:12;;;;;;;22.10;19.25;;;5.00;99.90;;;;;;5022322;27;91229;-37
2021/12/10 02:21:12;;;;;;;25.83;20.08;;;5.00;99.90;;;;;;5022284;27;89565;-33
2021/12/10 02:23:43;;;;;;;30.85;19.50;;;5.00;99.90;;;;;;5040955;27;89412;-36
2021/12/10 02:26:11;;;;;;;23.15;18.65;;;5.00;99.90;;;;;;5022914;27;91041;-34
2021/12/10 02:28:37;;;;;;;;;;;5.00;99.90;;;;;;5022291;27;90267;-35
2021/12/10 02:31:04;;;;;;;25.98;18.52;;;5.00;99.90;;;;;;5024812;27;87756;-34
2021/12/10 02:33:30;;;;;;;34.00;20.45;;;4.90;99.90;;;;;;5022768;27;89798;-35
2021/12/10 02:35:56;;;;;;;33.67;19.73;;;4.90;99.90;;;;;;5040254;27;90361;-38
2021/12/10 02:38:22;;;;;;;23.27;19.20;;;4.90;99.90;;;;;;5026512;27;89748;-37
2021/12/10 02:40:51;;;;;;;20.52;15.35;;;4.90;99.90;;;;;;5023965;28;87579;-35
2021/12/10 02:43:20;;;;;;;23.60;18.33;;;4.90;99.90;;;;;;4990023;28;89767;-34
2021/12/10 02:45:52;;;;;;;29.85;18.60;;;4.90;99.90;;;;;;5006083;28;91669;-34
2021/12/10 02:48:18;;;;;;;28.38;20.45;;;5.00;99.90;;;;;;5006376;28;89682;-34
2021/12/10 02:50:45;;;;;;;23.98;16.67;;;4.90;99.90;;;;;;5023674;28;87471;-35
2021/12/10 02:53:15;;;;;;;28.48;18.92;;;4.90;99.90;;;;;;5005052;28;89165;-33
2021/12/10 02:55:41;;;;;;;28.25;19.48;;;4.80;99.90;;;;;;5023297;28;89193;-31
2021/12/10 02:58:10;;;;;;;27.15;19.83;;;4.80;99.90;;;;;;5023566;28;90366;-37
2021/12/10 03:00:50;;;;;;;23.02;17.58;;;4.80;99.90;;;;;;5005341;28;89778;-37
2021/12/10 03:03:16;;;;;;;29.77;18.70;;;4.90;99.90;;;;;;5023642;28;89272;-38
2021/12/10 03:05:42;;;;;;;28.67;20.10;;;4.80;99.90;;;;;;5004861;28;91792;-35
2021/12/10 03:08:07;;;;;;;27.98;18.67;;;4.80;99.90;;;;;;5023572;28;88194;-36
2021/12/10 03:10:34;;;;;;;21.95;17.98;;;4.90;99.90;;;;;;5024001;28;87510;-37
2021/12/10 03:13:00;;;;;;;29.90;21.17;;;4.90;99.90;;;;;;5023529;28;87846;-38
2021/12/10 03:15:29;;;;;;;25.95;20.52;;;4.90;99.90;;;;;;5005812;28;90543;-40
2021/12/10 03:17:56;;;;;;;29.23;20.90;;;4.90;99.90;;;;;;5005717;28;90066;-35
2021/12/10 03:20:25;;;;;;;33.75;23.00;;;5.00;99.90;;;;;;5023527;28;89049;-35
2021/12/10 03:22:51;;;;;;;31.15;23.90;;;5.00;99.90;;;;;;4988528;28;87619;-33
2021/12/10 03:25:18;;;;;;;26.38;21.02;;;4.90;99.90;;;;;;5023117;28;90169;-33
2021/12/10 03:27:46;;;;;;;36.95;24.48;;;5.00;99.90;;;;;;5005313;28;89777;-37
2021/12/10 03:30:16;;;;;;;30.07;22.80;;;4.90;99.90;;;;;;5023497;28;90447;-33
2021/12/10 03:32:42;;;;;;;35.92;21.88;;;4.90;99.90;;;;;;5023406;28;87889;-36
2021/12/10 03:35:14;;;;;;;26.63;22.77;;;5.00;99.90;;;;;;5023114;28;90684;-36
2021/12/10 03:37:41;;;;;;;34.92;22.85;;;5.00;99.90;;;;;;5022651;28;91124;-37
2021/12/10 03:40:09;;;;;;;35.05;22.10;;;4.90;99.90;;;;;;5022899;28;88574;-36
2021/12/10 03:42:36;;;;;;;32.75;23.70;;;4.90;99.90;;;;;;5022429;28;90016;-35
2021/12/10 03:45:04;;;;;;;29.90;23.25;;;4.90;99.90;;;;;;5023569;28;90200;-33
2021/12/10 03:47:30;;;;;;;29.75;23.67;;;5.00;99.90;;;;;;5022763;28;90361;-35
2021/12/10 03:49:55;;;;;;;29.27;22.38;;;5.00;99.90;;;;;;5020291;28;89549;-37
2021/12/10 03:52:21;;;;;;;34.88;25.38;;;5.00;99.90;;;;;;5021958;28;87624;-34
2021/12/10 03:54:47;;;;;;;28.65;23.90;;;5.00;99.90;;;;;;5021113;28;90579;-33
2021/12/10 03:57:13;;;;;;;29.33;23.45;;;5.10;99.90;;;;;;5021347;28;90714;-34
2021/12/10 03:59:39;;;;;;;28.13;23.85;;;5.00;99.90;;;;;;5021846;28;90411;-34
2021/12/10 04:02:08;;;;;;;37.20;25.05;;;5.00;99.90;;;;;;5003753;28;89330;-40
2021/12/10 04:04:38;;;;;;;33.25;22.73;;;5.00;99.90;;;;;;5002564;28;91948;-31
2021/12/10 04:07:08;;;;;;;30.77;24.92;;;4.90;99.90;;;;;;5003136;28;89747;-39
2021/12/10 04:09:34;;;;;;;32.10;25.25;;;4.90;99.90;;;;;;5020691;28;89832;-38
2021/12/10 04:11:59;;;;;;;30.42;24.77;;;4.80;99.90;;;;;;5004534;28;88216;-34
2021/12/10 04:14:26;;;;;;;40.17;26.48;;;4.70;99.90;;;;;;5021376;28;90371;-33
2021/12/10 04:16:56;;;;;;;33.10;27.08;;;4.70;99.90;;;;;;5020502;28;90267;-37
2021/12/10 04:19:24;;;;;;;40.58;25.98;;;4.70;99.90;;;;;;5002292;28;89400;-32
2021/12/10 04:21:52;;;;;;;35.08;26.00;;;4.60;99.90;;;;;;5020907;28;89624;-33
2021/12/10 04:24:20;;;;;;;41.72;25.17;;;4.60;99.90;;;;;;5021504;28;90398;-39
2021/12/10 04:26:47;;;;;;;39.13;27.23;;;4.60;99.90;;;;;;5034663;27;89858;-32
2021/12/10 04:29:13;;;;;;;29.42;24.50;;;4.60;99.90;;;;;;5040022;27;89828;-35
2021/12/10 04:31:39;;;;;;;33.25;24.15;;;4.50;99.90;;;;;;5019764;27;89839;-33
2021/12/10 04:34:05;;;;;;;32.47;24.85;;;4.50;99.90;;;;;;4998677;27;90052;-35
2021/12/10 04:36:32;;;;;;;34.80;25.58;;;4.50;99.90;;;;;;5000568;27;90147;-35
2021/12/10 04:38:58;;;;;;;30.10;26.98;;;4.50;99.90;;;;;;5003056;27;90376;-36
2021/12/10 04:41:24;;;;;;;33.47;27.20;;;4.50;99.90;;;;;;4999924;27;89770;-34
2021/12/10 04:43:50;;;;;;;32.58;27.42;;;4.50;99.90;;;;;;5000178;27;90484;-35
2021/12/10 04:46:16;;;;;;;34.72;26.63;;;4.40;99.90;;;;;;5021973;27;91129;-40
2021/12/10 04:49:12;;;;;;;30.13;26.83;;;4.30;99.90;;;;;;5018424;27;91708;-37
2021/12/10 04:51:41;;;;;;;31.83;26.40;;;4.30;99.90;;;;;;4999437;27;89900;-31
2021/12/10 04:54:09;;;;;;;34.05;25.05;;;4.40;99.90;;;;;;5018133;27;90192;-35
2021/12/10 04:56:36;;;;;;;32.30;26.35;;;4.40;99.90;;;;;;5020601;28;90275;-36
2021/12/10 04:59:06;;;;;;;31.85;26.15;;;4.30;99.90;;;;;;5020965;28;89517;-37
2021/12/10 05:01:33;;;;;;;23.08;19.45;;;4.30;99.90;;;;;;5021338;27;88931;-35
2021/12/10 05:04:00;;;;;;;29.02;22.40;;;4.30;99.90;;;;;;5020605;28;90244;-35
2021/12/10 05:06:26;;;;;;;25.98;21.88;;;4.30;99.90;;;;;;5020877;28;88617;-34
2021/12/10 05:08:52;;;;;;;22.20;19.70;;;4.20;99.90;;;;;;5020682;28;90136;-40
2021/12/10 05:11:17;;;;;;;24.90;20.48;;;4.10;99.90;;;;;;5001701;28;88761;-39
2021/12/10 05:13:46;;;;;;;24.17;20.67;;;4.00;99.90;;;;;;5020136;28;88881;-38
2021/12/10 05:16:12;;;;;;;21.42;19.13;;;3.90;99.90;;;;;;5002668;28;90004;-35
2021/12/10 05:18:43;;;;;;;21.65;19.35;;;3.90;99.90;;;;;;5022002;27;89489;-40
2021/12/10 05:21:11;;;;;;;24.55;20.33;;;3.80;99.90;;;;;;5017554;27;89053;-36
2021/12/10 05:23:38;;;;;;;25.35;19.27;;;3.70;99.90;;;;;;4999720;28;90293;-34
2021/12/10 05:26:05;;;;;;;22.38;19.55;;;3.80;99.90;;;;;;5017651;27;89486;-36
2021/12/10 05:28:31;;;;;;;20.52;18.33;;;3.70;99.90;;;;;;5018737;27;88658;-32
2021/12/10 05:30:57;;;;;;;22.23;17.90;;;3.70;99.90;;;;;;5017229;27;89525;-35
2021/12/10 05:33:24;;;;;;;21.42;18.38;;;3.70;99.90;;;;;;5017132;27;90095;-35
2021/12/10 05:35:50;;;;;;;21.40;17.92;;;3.60;99.90;;;;;;5001380;28;90661;-32
2021/12/10 05:38:17;;;;;;;21.75;17.10;;;3.70;99.90;;;;;;5019933;27;89567;-38
2021/12/10 05:40:46;;;;;;;23.10;18.60;;;3.50;99.90;;;;;;5018797;28;88914;-33
2021/12/10 05:43:11;;;;;;;24.25;17.85;;;3.40;99.90;;;;;;5001284;28;90922;-38
2021/12/10 05:45:37;;;;;;;26.05;18.13;;;3.40;99.90;;;;;;5018160;28;88726;-33
2021/12/10 05:48:03;;;;;;;24.85;18.70;;;3.30;99.90;;;;;;5018442;28;89310;-32
2021/12/10 05:50:31;;;;;;;23.40;19.90;;;3.20;99.90;;;;;;5019067;28;88575;-33
2021/12/10 05:52:57;;;;;;;29.90;20.25;;;3.20;99.90;;;;;;5001077;28;90347;-36
2021/12/10 05:55:23;;;;;;;24.38;19.55;;;3.10;99.90;;;;;;5000508;28;89725;-37
2021/12/10 05:57:50;;;;;;;26.13;20.77;;;3.10;99.90;;;;;;5018985;28;88733;-36
2021/12/10 06:00:25;;;;;;;21.85;18.90;;;3.10;99.90;;;;;;5019254;28;90440;-33
2021/12/10 06:02:51;;;;;;;23.15;18.92;;;2.90;99.90;;;;;;5019566;28;90310;-34
2021/12/10 06:05:17;;;;;;;19.15;15.85;;;3.00;99.90;;;;;;5019877;28;89455;-38
2021/12/10 06:07:43;;;;;;;20.95;18.45;;;3.00;99.90;;;;;;5019566;28;90083;-35
2021/12/10 06:10:11;;;;;;;29.55;20.52;;;3.00;99.90;;;;;;5019240;28;89509;-40
2021/12/10 06:12:37;;;;;;;25.70;18.35;;;2.90;99.90;;;;;;5019199;28;90409;-40
2021/12/10 06:15:05;;;;;;;20.00;16.85;;;3.00;99.90;;;;;;5019198;28;89749;-34
2021/12/10 06:17:31;;;;;;;22.95;18.13;;;2.90;99.90;;;;;;5020093;28;89520;-34
2021/12/10 06:19:56;;;;;;;19.80;17.50;;;2.80;99.90;;;;;;5019185;28;89830;-38
2021/12/10 06:22:22;;;;;;;21.23;17.65;;;2.90;99.90;;;;;;5018877;28;90321;-33
2021/12/10 06:24:48;;;;;;;20.23;17.95;;;2.80;99.90;;;;;;5000549;28;91146;-40
2021/12/10 06:27:13;;;;;;;23.83;16.92;;;2.80;99.90;;;;;;5019942;28;89035;-32
2021/12/10 06:29:42;;;;;;;18.58;15.65;;;2.70;99.90;;;;;;5019241;28;88717;-32
2021/12/10 06:32:09;;;;;;;24.27;17.73;;;2.60;99.90;;;;;;5000608;28;88980;-37
2021/12/10 06:34:35;;;;;;;19.55;16.35;;;2.60;99.90;;;;;;5000821;28;89939;-36
2021/12/10 06:37:01;;;;;;;19.65;15.82;;;2.50;99.90;;;;;;5001328;28;90619;-36
2021/12/10 06:39:27;;;;;;;21.80;16.90;;;2.60;99.90;;;;;;5018978;28;88107;-37
2021/12/10 06:41:54;;;;;;;21.25;16.77;;;2.50;99.90;;;;;;5001463;28;91281;-38
2021/12/10 06:44:20;;;;;;;24.02;16.02;;;2.50;99.90;;;;;;4984249;28;89955;-38
2021/12/10 06:46:48;;;;;;;25.58;17.95;;;2.50;99.90;;;;;;5029423;27;89236;-39
2021/12/10 06:49:15;;;;;;;19.05;16.33;;;2.40;99.90;;;;;;5020718;27;90427;-37
2021/12/10 06:51:41;;;;;;;21.73;16.30;;;2.40;99.90;;;;;;5021016;27;91653;-33
2021/12/10 06:54:07;;;;;;;20.30;14.93;;;2.40;99.90;;;;;;5020930;27;89739;-39
2021/12/10 06:56:35;;;;;;;19.38;15.73;;;2.30;99.90;;;;;;5039672;27;89069;-38
2021/12/10 06:59:02;;;;;;;18.23;14.73;;;2.40;99.90;;;;;;5020937;27;88075;-35
2021/12/10 07:01:31;;;;;;;16.50;13.90;;;2.30;99.90;;;;;;5030747;27;90298;-33
2021/12/10 07:03:59;;;;;;;17.02;13.70;;;2.30;99.90;;;;;;4973395;28;99316;-37
2021/12/10 07:06:27;;;;;;;15.85;14.18;;;2.30;99.90;;;;;;5017627;28;89978;-35
2021/12/10 07:08:53;;;;;;;15.25;11.57;;;2.30;99.90;;;;;;5019162;28;88403;-33
2021/12/10 07:11:20;;;;;;;16.17;13.70;;;2.30;99.90;;;;;;5019082;28;90761;-35
2021/12/10 07:13:49;;;;;;;12.23;10.93;;;2.40;99.90;;;;;;5018400;28;90797;-33
2021/12/10 07:16:16;;;;;;;21.52;15.40;;;2.40;99.90;;;;;;5019002;28;90554;-35
2021/12/10 07:18:42;;;;;;;18.90;15.30;;;2.30;99.90;;;;;;5001016;28;90144;-32
2021/12/10 07:21:08;;;;;;;16.98;14.52;;;2.30;99.90;;;;;;5013768;28;90072;-37
2021/12/10 07:23:36;;;;;;;19.52;13.18;;;2.30;99.90;;;;;;4998014;28;89301;-33
2021/12/10 07:26:02;;;;;;;15.65;12.15;;;2.20;99.90;;;;;;5000220;28;89667;-33
2021/12/10 07:28:28;;;;;;;20.30;13.10;;;2.20;99.90;;;;;;4985049;28;90949;-32
2021/12/10 07:30:53;;;;;;;15.85;12.55;;;2.30;99.90;;;;;;4983912;28;88042;-32
2021/12/10 07:33:19;;;;;;;19.30;13.45;;;2.20;99.90;;;;;;5002127;28;88745;-36
2021/12/10 07:35:47;;;;;;;16.60;14.88;;;2.20;99.90;;;;;;4983527;28;89143;-37
2021/12/10 07:38:13;;;;;;;17.05;12.32;;;2.30;99.90;;;;;;5001319;28;90025;-32
2021/12/10 07:40:40;;;;;;;21.80;14.07;;;2.20;99.90;;;;;;5002890;28;89084;-36
2021/12/10 07:43:07;;;;;;;15.05;13.07;;;2.20;99.90;;;;;;5001969;28;88858;-33
2021/12/10 07:45:34;;;;;;;21.20;13.32;;;2.30;99.90;;;;;;5000762;28;90038;-39
2021/12/10 07:48:06;;;;;;;18.08;13.05;;;2.20;99.90;;;;;;4984270;28;89107;-37
2021/12/10 07:50:35;;;;;;;21.00;13.50;;;2.20;99.90;;;;;;4983542;28;89065;-36
2021/12/10 07:53:03;;;;;;;18.85;12.70;;;2.20;99.90;;;;;;4983789;28;91637;-35
2021/12/10 07:55:31;;;;;;;21.80;13.40;;;2.30;99.90;;;;;;5002081;28;90250;-40
2021/12/10 07:57:58;;;;;;;14.40;13.00;;;2.20;99.90;;;;;;5001913;28;89049;-33
2021/12/10 08:00:26;;;;;;;15.50;10.43;;;2.20;99.90;;;;;;5001586;28;89751;-35
2021/12/10 08:02:52;;;;;;;15.00;13.40;;;2.30;99.90;;;;;;5000185;28;90348;-38
2021/12/10 08:05:19;;;;;;;16.02;11.85;;;2.20;99.90;;;;;;4982338;28;92292;-38
2021/12/10 08:07:45;;;;;;;19.95;12.63;;;2.20;99.90;;;;;;4966441;28;88248;-36
2021/12/10 08:10:13;;;;;;;16.88;12.90;;;2.20;99.90;;;;;;5000679;28;89027;-34
2021/12/10 08:12:38;;;;;;;15.05;13.10;;;2.20;99.90;;;;;;5000504;28;89279;-40
2021/12/10 08:15:06;;;;;;;15.68;10.75;;;2.20;99.90;;;;;;5002097;28;89795;-35
2021/12/10 08:17:32;;;;;;;20.83;13.70;;;2.30;99.90;;;;;;5002538;28;89712;-37
2021/12/10 08:19:59;;;;;;;14.15;12.60;;;2.20;99.90;;;;;;4999715;28;88848;-39
2021/12/10 08:22:24;;;;;;;18.35;11.98;;;2.30;99.90;;;;;;5013941;28;89687;-35
2021/12/10 08:24:50;;;;;;;12.38;11.05;;;2.20;99.90;;;;;;5019518;28;91086;-33
2021/12/10 08:27:16;;;;;;;18.35;13.95;;;2.20;99.90;;;;;;5021987;28;88957;-35
2021/12/10 08:29:44;;;;;;;20.13;13.52;;;2.20;99.90;;;;;;5003666;28;90397;-33
2021/12/10 08:32:12;;;;;;;14.93;12.30;;;2.20;99.90;;;;;;5003312;28;89836;-30
2021/12/10 08:34:39;;;;;;;15.20;10.75;;;2.30;99.90;;;;;;5002542;28;90144;-34
2021/12/10 08:37:05;;;;;;;18.63;12.25;;;2.40;99.90;;;;;;5021065;28;88236;-35
2021/12/10 08:39:30;;;;;;;16.10;10.88;;;2.50;99.90;;;;;;5021061;28;88822;-37
2021/12/10 08:41:58;;;;;;;15.40;12.45;;;2.50;99.90;;;;;;5002846;28;89505;-39
2021/12/10 08:44:25;;;;;;;19.33;11.57;;;2.60;99.90;;;;;;5021438;28;88399;-37
2021/12/10 08:46:51;;;;;;;14.50;12.48;;;2.60;99.90;;;;;;5003011;28;89613;-32
2021/12/10 08:49:17;;;;;;;15.38;11.68;;;2.60;99.90;;;;;;5002563;28;88903;-34
2021/12/10 08:51:47;;;;;;;19.17;12.68;;;2.60;99.90;;;;;;5020507;28;90685;-35
2021/12/10 08:54:14;;;;;;;16.00;10.73;;;2.60;99.90;;;;;;5003760;28;91247;-34
2021/12/10 08:56:40;;;;;;;14.48;12.82;;;2.70;99.90;;;;;;5020537;28;89257;-35
2021/12/10 08:59:08;;;;;;;20.98;13.85;;;2.70;99.90;;;;;;5002135;28;90157;-32
2021/12/10 09:01:39;;;;;;;17.20;12.27;;;2.80;99.90;;;;;;5002341;28;90249;-37
2021/12/10 09:04:07;;;;;;;23.40;14.38;;;2.80;99.90;;;;;;5020223;28;89212;-38
2021/12/10 09:06:34;;;;;;;16.50;11.68;;;2.80;99.90;;;;;;5002608;28;89320;-37
2021/12/10 09:09:03;;;;;;;19.58;13.05;;;2.80;99.90;;;;;;5021322;28;90387;-36
2021/12/10 09:11:29;;;;;;;17.58;12.63;;;2.90;99.90;;;;;;5020658;28;89524;-37
2021/12/10 09:13:55;;;;;;;15.20;13.05;;;2.90;99.90;;;;;;5020123;28;89377;-32
2021/12/10 09:16:26;;;;;;;16.67;12.88;;;3.00;99.90;;;;;;5002929;28;89140;-37
2021/12/10 09:18:57;;;;;;;15.30;11.70;;;3.20;99.90;;;;;;5019910;28;90616;-32
2021/12/10 09:21:22;;;;;;;15.18;11.70;;;3.30;99.90;;;;;;5002176;28;89774;-35
2021/12/10 09:23:48;;;;;;;23.50;13.80;;;3.50;99.90;;;;;;5020814;28;89022;-36
2021/12/10 09:26:16;;;;;;;13.65;12.13;;;3.60;99.90;;;;;;5020054;28;87663;-34
2021/12/10 09:28:45;;;;;;;15.90;11.73;;;3.60;99.90;;;;;;5001599;28;91815;-33
2021/12/10 09:31:11;;;;;;;;;;;3.60;99.90;;;;;;5003143;28;89543;-33
2021/12/10 09:33:37;;;;;;;11.57;10.18;;;3.60;99.90;;;;;;5022740;28;89138;-39
2021/12/10 09:36:04;;;;;;;21.83;12.05;;;3.60;99.90;;;;;;5002585;28;88257;-35
2021/12/10 09:38:30;;;;;;;11.40;10.25;;;3.50;99.90;;;;;;5020400;28;89677;-32
2021/12/10 09:41:02;;;;;;;13.35;11.30;;;3.60;99.90;;;;;;5019915;28;90757;-34
2021/12/10 09:43:29;;;;;;;15.55;12.70;;;3.70;99.90;;;;;;5003132;28;90389;-33
2021/12/10 09:45:55;;;;;;;20.98;13.02;;;3.80;99.90;;;;;;5021131;28;89264;-34
2021/12/10 09:48:23;;;;;;;12.27;9.27;;;3.80;99.90;;;;;;5001099;28;89793;-38
2021/12/10 09:50:56;;;;;;;15.50;10.38;;;3.80;99.90;;;;;;5020313;28;89731;-34
2021/12/10 09:53:26;;;;;;;20.25;11.82;;;3.80;99.90;;;;;;5001959;28;89976;-33
2021/12/10 09:55:52;;;;;;;16.63;9.85;;;3.80;99.90;;;;;;5019934;28;88863;-36
2021/12/10 09:58:19;;;;;;;12.75;11.27;;;3.80;99.90;;;;;;5021118;28;89018;-33
2021/12/10 10:00:55;;;;;;;13.52;11.05;;;3.80;99.90;;;;;;5020009;28;89152;-37
2021/12/10 10:03:26;;;;;;;15.02;11.52;;;3.70;99.90;;;;;;5020141;28;89883;-35
2021/12/10 10:05:52;;;;;;;13.27;11.75;;;3.70;99.90;;;;;;5019337;28;89242;-34
2021/12/10 10:08:21;;;;;;;16.35;10.98;;;3.80;99.90;;;;;;5019888;28;90186;-34
2021/12/10 10:10:51;;;;;;;11.60;9.32;;;3.90;99.90;;;;;;5019474;28;90177;-36
2021/12/10 10:13:18;;;;;;;;;;;4.00;99.90;;;;;;5002216;28;89937;-37
2021/12/10 10:15:46;;;;;;;11.35;10.07;;;4.10;99.90;;;;;;5021412;28;87781;-39
2021/12/10 10:18:13;;;;;;;12.80;8.48;;;4.00;99.90;;;;;;5001964;28;90239;-33
2021/12/10 10:20:46;;;;;;;13.18;10.40;;;4.10;99.90;;;;;;5002426;28;89678;-37
2021/12/10 10:23:12;;;;;;;15.68;11.57;;;4.10;99.90;;;;;;5020268;28;89422;-33
2021/12/10 10:25:41;;;;;;;10.70;9.30;;;4.10;99.90;;;;;;5019937;28;89809;-35
2021/12/10 10:28:10;;;;;;;;;;;4.20;99.90;;;;;;5019874;28;90206;-38
2021/12/10 10:30:41;;;;;;;15.13;10.27;;;4.30;99.90;;;;;;5021082;28;90165;-36
2021/12/10 10:33:10;;;;;;;15.32;9.90;;;4.30;99.90;;;;;;5019847;28;90544;-35
2021/12/10 10:35:44;;;;;;;12.27;9.18;;;4.40;99.90;;;;;;5019423;28;88960;-36
2021/12/10 10:38:12;;;;;;;12.50;8.88;;;4.50;99.90;;;;;;5019962;28;92562;-40
2021/12/10 10:40:42;;;;;;;11.07;9.97;;;4.40;99.90;;;;;;5001785;28;89850;-34
2021/12/10 10:43:08;;;;;;;10.00;8.93;;;4.50;99.90;;;;;;5018940;28;89555;-36
2021/12/10 10:45:37;;;;;;;10.95;9.15;;;4.60;99.90;;;;;;5019768;28;89472;-39
2021/12/10 10:48:05;;;;;;;13.85;7.88;;;4.60;99.90;;;;;;5019673;28;89682;-38
2021/12/10 10:50:46;;;;;;;7.85;5.72;;;4.70;99.90;;;;;;5001360;28;90066;-38
2021/12/10 10:53:14;;;;;;;9.70;8.70;;;4.80;99.90;;;;;;5019916;28;89360;-33
2021/12/10 10:56:04;;;;;;;10.35;9.25;;;4.80;99.90;;;;;;5017019;28;89506;-37
2021/12/10 10:58:35;;;;;;;11.07;8.43;;;4.80;99.90;;;;;;4999662;28;90248;-34
2021/12/10 11:01:13;;;;;;;10.02;8.65;;;4.80;99.90;;;;;;5002144;28;89485;-37
2021/12/10 11:03:47;;;;;;;10.70;8.23;;;4.90;99.90;;;;;;5002130;28;91350;-38
2021/12/10 11:06:26;;;;;;;11.68;8.57;;;4.90;99.90;;;;;;5003740;28;89798;-35
2021/12/10 11:09:03;;;;;;;10.55;8.57;;;4.90;99.90;;;;;;5003229;28;90185;-36
2021/12/10 11:11:35;;;;;;;9.77;8.77;;;4.90;99.90;;;;;;5021662;28;90154;-34
2021/12/10 11:14:15;;;;;;;8.30;7.20;;;5.00;99.90;;;;;;5021979;28;88286;-38
2021/12/10 11:16:43;;;;;;;8.38;6.18;;;5.00;99.90;;;;;;5003109;28;89024;-37
2021/12/10 11:19:13;;;;;;;11.88;8.70;;;5.00;99.90;;;;;;5021574;28;89058;-34
2021/12/10 11:22:02;;;;;;;9.82;7.65;;;5.00;99.90;;;;;;5020346;28;90841;-34
2021/12/10 11:24:45;;;;;;;9.07;6.93;;;5.10;99.90;;;;;;5021652;28;88986;-39
2021/12/10 11:27:32;;;;;;;17.17;8.20;;;5.20;99.90;;;;;;5020799;28;89088;-38
2021/12/10 11:30:00;;;;;;;9.23;6.93;;;5.30;99.90;;;;;;5020163;28;90847;-37
2021/12/10 11:32:35;;;;;;;9.48;6.68;;;5.40;99.90;;;;;;5003125;28;89841;-34
2021/12/10 11:35:11;;;;;;;12.40;7.95;;;5.30;99.90;;;;;;5003318;28;90389;-38
2021/12/10 11:37:42;;;;;;;8.23;7.38;;;5.30;99.90;;;;;;5021081;28;90229;-33
2021/12/10 11:40:22;;;;;;;18.70;15.60;;;5.40;99.90;;;;;;5020334;27;90400;-36
2021/12/10 11:42:55;;;;;;;10.63;8.82;;;5.40;99.90;;;;;;5019798;28;89960;-34
2021/12/10 11:45:42;;;;;;;10.60;7.78;;;5.40;99.90;;;;;;5002449;28;89706;-38
2021/12/10 11:48:13;;;;;;;14.48;8.95;;;5.40;99.90;;;;;;5002194;28;90414;-34
2021/12/10 11:50:46;;;;;;;8.00;6.55;;;5.50;99.90;;;;;;5020496;28;88888;-35
2021/12/10 11:53:16;;;;;;;9.05;6.53;;;5.50;99.90;;;;;;4985805;28;89557;-37
2021/12/10 11:55:55;;;;;;;8.23;5.45;;;5.60;99.90;;;;;;5019405;28;88162;-39
2021/12/10 11:58:21;;;;;;;10.68;6.88;;;5.60;99.90;;;;;;5020389;28;88583;-38
2021/12/10 12:00:47;;;;;;;12.05;7.07;;;5.70;99.90;;;;;;5019962;28;89885;-34
2021/12/10 12:03:12;;;;;;;8.32;6.68;;;5.60;99.90;;;;;;5020131;28;89651;-37
2021/12/10 12:05:42;;;;;;;13.25;6.93;;;5.70;99.90;;;;;;5019322;28;89387;-34
2021/12/10 12:08:14;;;;;;;9.75;6.05;;;5.70;99.90;;;;;;5020734;28;88909;-31
2021/12/10 12:10:47;;;;;;;9.35;6.03;;;5.70;99.90;;;;;;5019509;28;90078;-33
2021/12/10 12:16:00;;;;;;;7.78;6.32;;;5.80;99.90;;;;;;5019790;27;89350;-39
2021/12/10 12:18:31;;;;;;;7.55;6.45;;;5.80;99.90;;;;;;5019735;28;89641;-34
2021/12/10 12:20:59;;;;;;;8.32;5.82;;;5.80;99.90;;;;;;5001031;28;91634;-33
2021/12/10 12:26:25;;;;;;;10.50;6.60;;;5.80;99.90;;;;;;5019964;28;89868;-38
2021/12/10 12:28:57;;;;;;;11.02;6.03;;;5.80;99.90;;;;;;5019776;28;87962;-35
2021/12/10 12:31:39;;;;;;;7.32;6.05;;;5.80;99.90;;;;;;5019722;28;90206;-38
2021/12/10 12:34:23;;;;;;;8.00;7.20;;;5.90;99.90;;;;;;5002538;28;89910;-38
2021/12/10 12:36:51;;;;;;;7.05;6.30;;;6.00;99.90;;;;;;5019886;28;89186;-36
2021/12/10 12:39:46;;;;;;;8.07;5.55;;;5.90;99.90;;;;;;5000807;28;90473;-38
2021/12/10 12:42:42;;;;;;;11.73;5.68;;;5.80;99.90;;;;;;5019871;28;90473;-32
2021/12/10 12:45:20;;;;;;;16.70;7.00;;;5.80;99.90;;;;;;4986495;28;91251;-37
2021/12/10 12:47:52;;;;;;;7.82;5.82;;;5.60;99.90;;;;;;5019137;28;89647;-36
2021/12/10 12:50:22;;;;;;;7.93;5.85;;;5.60;99.90;;;;;;4985467;28;88958;-33
2021/12/10 12:53:03;;;;;;;12.05;6.05;;;5.50;99.90;;;;;;5019188;28;89992;-36
2021/12/10 12:55:49;;;;;;;7.57;5.28;;;5.50;99.90;;;;;;5019203;28;90142;-37
2021/12/10 12:58:15;;;;;;;14.95;5.93;;;5.50;99.90;;;;;;5020263;28;90662;-33
2021/12/10 13:00:57;;;;;;;11.75;6.20;;;5.50;99.90;;;;;;5000996;28;88815;-39
2021/12/10 13:03:30;;;;;;;11.30;6.47;;;5.40;99.90;;;;;;5001487;28;90180;-39
2021/12/10 13:06:05;;;;;;;9.18;6.40;;;5.40;99.90;;;;;;5018153;28;90715;-39
2021/12/10 13:08:35;;;;;;;9.95;6.13;;;5.30;99.90;;;;;;5020206;28;90533;-31